createdAt,value
2023-06-23T00:00:58.266Z,57.6
2023-06-23T00:02:00.981Z,57.6
2023-06-23T00:02:58.187Z,57.6
2023-06-23T00:03:58.224Z,57.6
2023-06-23T00:04:58.172Z,57.6
2023-06-23T00:05:58.185Z,57.6
2023-06-23T00:06:58.250Z,57.7
2023-06-23T00:07:58.190Z,57.7
2023-06-23T00:08:58.210Z,57.7
2023-06-23T00:09:58.178Z,57.7
2023-06-23T00:10:58.215Z,57.8
2023-06-23T00:11:58.255Z,57.8
2023-06-23T00:12:58.361Z,57.8
2023-06-23T00:13:58.210Z,57.8
2023-06-23T00:14:58.163Z,57.8
2023-06-23T00:15:58.211Z,57.8
2023-06-23T00:16:58.281Z,57.9
2023-06-23T00:17:58.233Z,57.9
2023-06-23T00:18:58.196Z,57.9
2023-06-23T00:19:58.202Z,58.0
2023-06-23T00:20:58.193Z,58.0
2023-06-23T00:21:58.143Z,58.0
2023-06-23T00:22:58.254Z,58.1
2023-06-23T00:23:59.715Z,58.0
2023-06-23T00:24:58.220Z,58.0
2023-06-23T00:25:58.202Z,58.1
2023-06-23T00:26:58.141Z,58.1
2023-06-23T00:27:58.198Z,58.1
2023-06-23T00:28:58.204Z,58.1
2023-06-23T00:29:58.140Z,58.1
2023-06-23T00:30:58.194Z,58.2
2023-06-23T00:31:58.175Z,58.2
2023-06-23T00:32:58.202Z,58.2
2023-06-23T00:33:58.236Z,58.2
2023-06-23T00:34:58.295Z,58.2
2023-06-23T00:35:58.151Z,58.2
2023-06-23T00:36:58.199Z,58.2
2023-06-23T00:37:58.140Z,58.3
2023-06-23T00:38:58.229Z,58.3
2023-06-23T00:39:58.158Z,58.3
2023-06-23T00:40:58.150Z,58.3
2023-06-23T00:41:58.174Z,58.3
2023-06-23T00:42:58.122Z,58.3
2023-06-23T00:43:58.131Z,58.3
2023-06-23T00:44:59.902Z,58.4
2023-06-23T00:45:58.303Z,58.3
2023-06-23T00:46:58.151Z,58.3
2023-06-23T00:47:58.142Z,58.3
2023-06-23T00:48:58.254Z,58.4
2023-06-23T00:49:58.157Z,58.4
2023-06-23T00:50:58.130Z,58.4
2023-06-23T00:51:58.116Z,58.4
2023-06-23T00:52:58.135Z,58.4
2023-06-23T00:53:58.131Z,58.3
2023-06-23T00:54:58.167Z,58.4
2023-06-23T00:55:58.147Z,58.3
2023-06-23T00:57:01.218Z,58.3
2023-06-23T00:57:58.180Z,58.3
2023-06-23T00:58:58.105Z,58.3
2023-06-23T00:59:58.122Z,58.4
2023-06-23T01:00:58.161Z,58.4
2023-06-23T01:01:58.151Z,58.4
2023-06-23T01:02:58.227Z,58.4
2023-06-23T01:03:58.442Z,58.4
2023-06-23T01:04:58.158Z,58.4
2023-06-23T01:05:59.545Z,58.4
2023-06-23T01:06:58.336Z,58.5
2023-06-23T01:07:58.337Z,58.5
2023-06-23T01:08:58.122Z,58.5
2023-06-23T01:09:58.235Z,58.5
2023-06-23T01:10:58.127Z,58.5
2023-06-23T01:11:58.963Z,58.5
2023-06-23T01:12:58.180Z,58.6
2023-06-23T01:13:58.136Z,58.6
2023-06-23T01:14:58.078Z,58.6
2023-06-23T01:15:58.210Z,58.6
2023-06-23T01:16:58.118Z,58.6
2023-06-23T01:17:58.141Z,58.7
2023-06-23T01:18:58.369Z,58.6
2023-06-23T01:19:59.555Z,58.7
2023-06-23T01:20:58.076Z,58.7
2023-06-23T01:21:58.095Z,58.7
2023-06-23T01:22:58.102Z,58.7
2023-06-23T01:23:58.086Z,58.8
2023-06-23T01:24:58.102Z,58.7
2023-06-23T01:25:58.095Z,58.7
2023-06-23T01:26:59.591Z,58.7
2023-06-23T01:27:58.092Z,58.7
2023-06-23T01:28:58.192Z,58.7
2023-06-23T01:29:58.067Z,58.7
2023-06-23T01:30:58.070Z,58.7
2023-06-23T01:31:58.134Z,58.7
2023-06-23T01:32:58.231Z,58.7
2023-06-23T01:33:58.065Z,58.7
2023-06-23T01:34:58.102Z,58.7
2023-06-23T01:35:58.272Z,58.7
2023-06-23T01:36:58.142Z,58.7
2023-06-23T01:37:58.086Z,58.7
2023-06-23T01:38:58.103Z,58.7
2023-06-23T01:39:58.079Z,58.7
2023-06-23T01:40:58.348Z,58.7
2023-06-23T01:41:58.080Z,58.7
2023-06-23T01:42:58.531Z,58.7
2023-06-23T01:43:58.072Z,58.7
2023-06-23T01:44:58.034Z,58.7
2023-06-23T01:45:58.111Z,58.7
2023-06-23T01:46:58.063Z,58.7
2023-06-23T01:47:59.755Z,58.7
2023-06-23T01:48:58.026Z,58.7
2023-06-23T01:49:58.069Z,58.6
2023-06-23T01:50:58.059Z,58.6
2023-06-23T01:51:58.221Z,58.6
2023-06-23T01:52:58.141Z,58.6
2023-06-23T01:53:58.147Z,58.6
2023-06-23T01:54:58.055Z,58.6
2023-06-23T01:55:58.077Z,58.6
2023-06-23T01:56:58.025Z,58.6
2023-06-23T01:57:58.263Z,58.6
2023-06-23T01:58:58.124Z,58.6
2023-06-23T01:59:58.044Z,58.5
2023-06-23T02:00:58.027Z,58.5
2023-06-23T02:01:58.085Z,58.5
2023-06-23T02:02:58.538Z,58.5
2023-06-23T02:03:58.136Z,58.4
2023-06-23T02:04:58.156Z,58.4
2023-06-23T02:05:58.020Z,58.4
2023-06-23T02:06:58.028Z,58.4
2023-06-23T02:07:58.037Z,58.4
2023-06-23T02:08:58.040Z,58.4
2023-06-23T02:10:00.759Z,58.3
2023-06-23T02:10:58.069Z,58.3
2023-06-23T02:11:58.017Z,58.3
2023-06-23T02:12:58.005Z,58.3
2023-06-23T02:13:58.151Z,58.3
2023-06-23T02:14:58.019Z,58.2
2023-06-23T02:15:58.042Z,58.3
2023-06-23T02:16:58.040Z,58.2
2023-06-23T02:17:58.053Z,58.2
2023-06-23T02:18:58.011Z,58.2
2023-06-23T02:19:58.026Z,58.2
2023-06-23T02:20:58.082Z,58.2
2023-06-23T02:21:58.008Z,58.2
2023-06-23T02:22:58.018Z,58.2
2023-06-23T02:23:58.030Z,58.2
2023-06-23T02:24:58.118Z,58.1
2023-06-23T02:25:58.029Z,58.1
2023-06-23T02:26:58.058Z,58.1
2023-06-23T02:27:58.031Z,58.1
2023-06-23T02:28:57.997Z,58.1
2023-06-23T02:29:58.005Z,58.1
2023-06-23T02:31:00.796Z,58.1
2023-06-23T02:31:58.084Z,58.1
2023-06-23T02:32:58.098Z,58.1
2023-06-23T02:33:58.030Z,58.1
2023-06-23T02:34:58.059Z,58.1
2023-06-23T02:35:57.986Z,58.1
2023-06-23T02:36:58.000Z,58.0
2023-06-23T02:37:58.081Z,58.1
2023-06-23T02:38:57.987Z,58.0
2023-06-23T02:39:58.032Z,58.0
2023-06-23T02:40:57.982Z,58.0
2023-06-23T02:41:58.024Z,58.0
2023-06-23T02:42:58.058Z,58.1
2023-06-23T02:43:58.049Z,58.1
2023-06-23T02:44:58.040Z,58.1
2023-06-23T02:45:58.047Z,58.1
2023-06-23T02:46:58.038Z,58.1
2023-06-23T02:47:58.260Z,58.1
2023-06-23T02:48:58.064Z,58.1
2023-06-23T02:49:57.993Z,58.1
2023-06-23T02:50:58.130Z,58.1
2023-06-23T02:52:00.752Z,58.1
2023-06-23T02:52:58.061Z,58.1
2023-06-23T02:53:57.956Z,58.1
2023-06-23T02:54:58.003Z,58.1
2023-06-23T02:55:57.984Z,58.1
2023-06-23T02:56:57.960Z,58.1
2023-06-23T02:57:58.131Z,58.1
2023-06-23T02:58:58.309Z,58.1
2023-06-23T02:59:57.994Z,58.2
2023-06-23T03:00:58.055Z,58.2
2023-06-23T03:01:57.928Z,58.2
2023-06-23T03:02:58.160Z,58.2
2023-06-23T03:03:58.103Z,58.2
2023-06-23T03:04:58.002Z,58.3
2023-06-23T03:05:58.003Z,58.3
2023-06-23T03:06:58.115Z,58.3
2023-06-23T03:07:58.026Z,58.3
2023-06-23T03:08:58.005Z,58.3
2023-06-23T03:09:58.099Z,58.3
2023-06-23T03:10:58.034Z,58.3
2023-06-23T03:11:57.992Z,58.3
2023-06-23T03:12:59.555Z,58.4
2023-06-23T03:13:57.980Z,58.4
2023-06-23T03:14:58.022Z,58.4
2023-06-23T03:15:58.008Z,58.4
2023-06-23T03:16:57.964Z,58.4
2023-06-23T03:17:58.052Z,58.5
2023-06-23T03:18:57.977Z,58.5
2023-06-23T03:19:57.983Z,58.5
2023-06-23T03:20:58.141Z,58.5
2023-06-23T03:21:58.004Z,58.5
2023-06-23T03:22:58.002Z,58.6
2023-06-23T03:23:57.959Z,58.6
2023-06-23T03:24:58.010Z,58.6
2023-06-23T03:25:57.951Z,58.6
2023-06-23T03:26:57.955Z,58.6
2023-06-23T03:27:57.973Z,58.7
2023-06-23T03:28:57.902Z,58.7
2023-06-23T03:30:02.320Z,58.7
2023-06-23T03:30:58.051Z,58.7
2023-06-23T03:31:58.306Z,58.7
2023-06-23T03:32:58.028Z,58.8
2023-06-23T03:33:58.070Z,58.8
2023-06-23T03:34:57.953Z,58.8
2023-06-23T03:36:00.898Z,58.8
2023-06-23T03:36:57.937Z,58.9
2023-06-23T03:37:57.960Z,58.9
2023-06-23T03:38:58.017Z,58.9
2023-06-23T03:39:57.963Z,58.9
2023-06-23T03:40:57.938Z,59.0
2023-06-23T03:41:57.890Z,59.0
2023-06-23T03:42:58.358Z,59.0
2023-06-23T03:43:57.995Z,59.0
2023-06-23T03:44:57.902Z,59.0
2023-06-23T03:45:57.988Z,59.0
2023-06-23T03:46:58.106Z,59.1
2023-06-23T03:47:57.996Z,59.1
2023-06-23T03:48:58.025Z,59.1
2023-06-23T03:49:57.951Z,59.1
2023-06-23T03:50:57.990Z,59.1
2023-06-23T03:51:58.090Z,59.1
2023-06-23T03:52:57.918Z,59.1
2023-06-23T03:53:58.193Z,59.1
2023-06-23T03:54:57.957Z,59.2
2023-06-23T03:55:59.135Z,59.2
2023-06-23T03:57:01.119Z,59.2
2023-06-23T03:57:58.014Z,59.2
2023-06-23T03:58:58.064Z,59.2
2023-06-23T03:59:57.929Z,59.2
2023-06-23T04:00:57.911Z,59.2
2023-06-23T04:01:58.045Z,59.2
2023-06-23T04:02:57.918Z,59.2
2023-06-23T04:03:59.458Z,59.3
2023-06-23T04:04:58.064Z,59.3
2023-06-23T04:05:57.924Z,59.3
2023-06-23T04:06:57.879Z,59.3
2023-06-23T04:07:57.939Z,59.3
2023-06-23T04:08:57.969Z,59.3
2023-06-23T04:09:57.934Z,59.3
2023-06-23T04:10:57.967Z,59.4
2023-06-23T04:11:57.911Z,59.4
2023-06-23T04:12:57.904Z,59.4
2023-06-23T04:13:57.901Z,59.4
2023-06-23T04:14:57.856Z,59.4
2023-06-23T04:15:58.158Z,59.5
2023-06-23T04:16:57.985Z,59.5
2023-06-23T04:18:00.771Z,59.5
2023-06-23T04:18:58.026Z,59.5
2023-06-23T04:19:57.919Z,59.5
2023-06-23T04:20:57.903Z,59.6
2023-06-23T04:21:57.848Z,59.6
2023-06-23T04:22:57.885Z,59.6
2023-06-23T04:23:57.884Z,59.6
2023-06-23T04:24:57.868Z,59.6
2023-06-23T04:25:58.073Z,59.6
2023-06-23T04:26:57.895Z,59.7
2023-06-23T04:27:57.887Z,59.7
2023-06-23T04:28:57.850Z,59.7
2023-06-23T04:29:57.881Z,59.7
2023-06-23T04:30:57.934Z,59.7
2023-06-23T04:31:57.889Z,59.7
2023-06-23T04:32:57.878Z,59.7
2023-06-23T04:33:57.865Z,59.7
2023-06-23T04:34:58.036Z,59.8
2023-06-23T04:35:57.907Z,59.8
2023-06-23T04:36:58.083Z,59.8
2023-06-23T04:37:59.155Z,59.8
2023-06-23T04:38:58.966Z,59.8
2023-06-23T04:39:57.842Z,59.8
2023-06-23T04:40:57.886Z,59.8
2023-06-23T04:41:57.856Z,59.8
2023-06-23T04:42:57.843Z,59.8
2023-06-23T04:43:57.860Z,59.9
2023-06-23T04:44:57.892Z,59.9
2023-06-23T04:45:57.924Z,59.9
2023-06-23T04:46:57.823Z,59.9
2023-06-23T04:47:57.956Z,59.9
2023-06-23T04:48:57.833Z,59.9
2023-06-23T04:49:57.839Z,59.9
2023-06-23T04:50:57.849Z,59.9
2023-06-23T04:51:57.830Z,59.9
2023-06-23T04:52:57.840Z,59.9
2023-06-23T04:53:57.825Z,59.9
2023-06-23T04:54:57.862Z,59.9
2023-06-23T04:55:57.873Z,59.9
2023-06-23T04:56:57.869Z,60.0
2023-06-23T04:57:57.835Z,59.9
2023-06-23T04:58:58.162Z,60.0
2023-06-23T04:59:58.727Z,60.0
2023-06-23T05:00:57.935Z,60.0
2023-06-23T05:01:57.813Z,60.0
2023-06-23T05:02:57.878Z,60.0
2023-06-23T05:03:57.888Z,60.0
2023-06-23T05:04:57.814Z,60.0
2023-06-23T05:05:57.844Z,60.0
2023-06-23T05:06:57.803Z,60.0
2023-06-23T05:07:57.792Z,60.1
2023-06-23T05:08:57.791Z,60.0
2023-06-23T05:09:57.796Z,60.1
2023-06-23T05:10:59.504Z,60.1
2023-06-23T05:11:57.862Z,60.1
2023-06-23T05:12:57.791Z,60.3
2023-06-23T05:13:57.816Z,60.5
2023-06-23T05:14:57.811Z,60.9
2023-06-23T05:15:57.797Z,60.8
2023-06-23T05:16:57.824Z,60.4
2023-06-23T05:17:57.845Z,60.7
2023-06-23T05:18:57.787Z,60.8
2023-06-23T05:19:58.006Z,60.9
2023-06-23T05:20:57.823Z,61.1
2023-06-23T05:21:59.567Z,61.5
2023-06-23T05:22:57.810Z,61.4
2023-06-23T05:23:57.788Z,61.5
2023-06-23T05:24:57.797Z,61.2
2023-06-23T05:25:57.834Z,61.1
2023-06-23T05:26:57.786Z,61.2
2023-06-23T05:27:57.783Z,61.2
2023-06-23T05:28:57.820Z,61.1
2023-06-23T05:29:57.802Z,61.2
2023-06-23T05:30:57.988Z,61.2
2023-06-23T05:31:57.809Z,61.3
2023-06-23T05:32:57.834Z,61.4
2023-06-23T05:33:57.809Z,61.6
2023-06-23T05:34:57.784Z,61.6
2023-06-23T05:35:57.782Z,61.7
2023-06-23T05:36:57.811Z,61.6
2023-06-23T05:37:57.820Z,61.8
2023-06-23T05:38:57.776Z,61.9
2023-06-23T05:39:57.795Z,62.0
2023-06-23T05:40:57.732Z,62.0
2023-06-23T05:41:58.062Z,62.0
2023-06-23T05:42:59.629Z,62.1
2023-06-23T05:43:57.752Z,62.2
2023-06-23T05:44:57.747Z,62.3
2023-06-23T05:45:57.752Z,62.3
2023-06-23T05:46:57.828Z,62.3
2023-06-23T05:47:57.823Z,62.4
2023-06-23T05:48:57.761Z,62.5
2023-06-23T05:49:57.763Z,62.6
2023-06-23T05:50:57.746Z,62.6
2023-06-23T05:51:57.734Z,62.7
2023-06-23T05:52:57.763Z,62.8
2023-06-23T05:53:57.745Z,62.8
2023-06-23T05:54:57.912Z,63.0
2023-06-23T05:55:57.884Z,63.1
2023-06-23T05:56:57.720Z,63.2
2023-06-23T05:57:57.737Z,63.2
2023-06-23T05:58:57.759Z,63.3
2023-06-23T05:59:57.752Z,63.4
2023-06-23T06:00:57.910Z,63.5
2023-06-23T06:01:57.737Z,63.6
2023-06-23T06:02:57.847Z,63.7
2023-06-23T06:03:59.903Z,63.7
2023-06-23T06:04:57.738Z,63.8
2023-06-23T06:05:57.750Z,63.8
2023-06-23T06:06:57.756Z,63.9
2023-06-23T06:07:57.728Z,63.9
2023-06-23T06:08:57.736Z,64.0
2023-06-23T06:09:57.742Z,64.1
2023-06-23T06:10:57.761Z,64.2
2023-06-23T06:11:57.771Z,64.2
2023-06-23T06:12:57.765Z,64.2
2023-06-23T06:13:57.700Z,64.3
2023-06-23T06:14:58.106Z,64.4
2023-06-23T06:15:57.790Z,64.5
2023-06-23T06:17:57.800Z,64.6
2023-06-23T06:18:57.950Z,64.7
2023-06-23T06:19:57.691Z,64.8
2023-06-23T06:20:58.164Z,64.8
2023-06-23T06:23:06.262Z,65.0
2023-06-23T06:23:58.545Z,65.1
2023-06-23T06:24:57.686Z,65.1
2023-06-23T06:25:57.909Z,65.4
2023-06-23T06:26:57.872Z,65.2
2023-06-23T06:27:57.714Z,65.3
2023-06-23T06:28:57.809Z,65.4
2023-06-23T06:29:57.708Z,65.4
2023-06-23T06:30:57.780Z,65.5
2023-06-23T06:31:57.714Z,65.5
2023-06-23T06:32:57.760Z,65.6
2023-06-23T06:33:57.794Z,65.6
2023-06-23T06:34:57.698Z,65.7
2023-06-23T06:35:57.761Z,65.8
2023-06-23T06:36:57.686Z,65.8
2023-06-23T06:37:57.706Z,65.8
2023-06-23T06:38:57.760Z,65.9
2023-06-23T06:39:57.680Z,66.0
2023-06-23T06:40:57.753Z,66.0
2023-06-23T06:41:57.921Z,66.1
2023-06-23T06:42:57.669Z,66.1
2023-06-23T06:43:57.801Z,66.2
2023-06-23T06:44:58.674Z,66.2
2023-06-23T06:45:57.663Z,66.3
2023-06-23T06:46:57.777Z,66.3
2023-06-23T06:47:57.982Z,66.4
2023-06-23T06:48:57.671Z,66.4
2023-06-23T06:49:57.787Z,66.4
2023-06-23T06:50:57.701Z,66.5
2023-06-23T06:51:57.725Z,66.5
2023-06-23T06:52:57.666Z,66.6
2023-06-23T06:53:57.681Z,66.6
2023-06-23T06:54:57.768Z,66.6
2023-06-23T06:55:57.728Z,66.6
2023-06-23T06:56:57.698Z,66.7
2023-06-23T06:57:57.692Z,66.8
2023-06-23T06:58:57.810Z,66.8
2023-06-23T06:59:57.725Z,66.9
2023-06-23T07:00:57.699Z,66.9
2023-06-23T07:01:57.710Z,67.0
2023-06-23T07:02:57.813Z,67.0
2023-06-23T07:04:22.898Z,67.0
2023-06-23T07:05:23.015Z,67.1
2023-06-23T07:06:23.004Z,67.2
2023-06-23T07:07:22.892Z,67.2
2023-06-23T07:08:22.905Z,67.3
2023-06-23T07:09:22.912Z,67.3
2023-06-23T07:10:22.928Z,67.7
2023-06-23T07:11:23.010Z,67.5
2023-06-23T07:12:23.372Z,67.6
2023-06-23T07:13:22.924Z,67.6
2023-06-23T07:14:22.985Z,67.8
2023-06-23T07:15:26.041Z,67.6
2023-06-23T07:16:22.861Z,67.7
2023-06-23T07:17:22.883Z,67.7
2023-06-23T07:18:22.908Z,67.8
2023-06-23T07:19:22.882Z,67.8
2023-06-23T07:20:24.522Z,67.8
2023-06-23T07:21:22.844Z,67.8
2023-06-23T07:22:22.825Z,67.9
2023-06-23T07:23:22.825Z,67.9
2023-06-23T07:24:22.877Z,68.0
2023-06-23T07:25:22.868Z,68.0
2023-06-23T07:26:22.843Z,68.1
2023-06-23T07:29:22.869Z,68.1
2023-06-23T07:30:22.914Z,68.1
2023-06-23T07:31:23.188Z,68.2
2023-06-23T07:32:22.870Z,68.3
2023-06-23T07:33:22.818Z,68.3
2023-06-23T07:34:24.011Z,68.3
2023-06-23T07:35:22.998Z,68.4
2023-06-23T07:36:23.739Z,68.4
2023-06-23T07:37:22.959Z,68.4
2023-06-23T07:38:22.811Z,68.5
2023-06-23T07:39:22.844Z,68.5
2023-06-23T07:40:22.853Z,68.6
2023-06-23T07:41:22.831Z,68.7
2023-06-23T07:42:23.035Z,68.7
2023-06-23T07:43:22.811Z,68.7
2023-06-23T07:44:22.803Z,68.7
2023-06-23T07:45:22.841Z,68.7
2023-06-23T07:46:22.884Z,68.8
2023-06-23T07:47:22.885Z,68.9
2023-06-23T07:48:22.835Z,68.9
2023-06-23T07:49:22.841Z,68.9
2023-06-23T07:50:22.845Z,68.9
2023-06-23T07:51:22.836Z,68.9
2023-06-23T07:52:22.841Z,69.0
2023-06-23T07:53:23.038Z,69.0
2023-06-23T07:54:22.859Z,69.1
2023-06-23T07:55:22.801Z,69.1
2023-06-23T07:56:22.910Z,69.1
2023-06-23T07:57:23.748Z,69.1
2023-06-23T07:58:22.841Z,69.1
2023-06-23T07:59:22.787Z,69.1
2023-06-23T08:00:22.817Z,69.1
2023-06-23T08:01:22.968Z,69.2
2023-06-23T08:02:22.999Z,69.2
2023-06-23T08:03:22.889Z,69.2
2023-06-23T08:04:23.204Z,69.3
2023-06-23T08:05:22.797Z,69.3
2023-06-23T08:06:22.784Z,69.4
2023-06-23T08:07:22.826Z,69.4
2023-06-23T08:08:22.799Z,69.4
2023-06-23T08:09:22.805Z,69.4
2023-06-23T08:10:22.878Z,69.5
2023-06-23T08:11:22.786Z,69.5
2023-06-23T08:12:22.789Z,69.5
2023-06-23T08:13:22.828Z,69.5
2023-06-23T08:14:22.791Z,69.5
2023-06-23T08:15:22.994Z,69.5
2023-06-23T08:16:22.897Z,69.5
2023-06-23T08:17:22.849Z,69.6
2023-06-23T08:18:22.817Z,69.5
2023-06-23T08:19:22.786Z,69.6
2023-06-23T08:20:24.761Z,69.6
2023-06-23T08:21:22.832Z,69.6
2023-06-23T08:22:22.783Z,69.6
2023-06-23T08:23:22.784Z,69.7
2023-06-23T08:24:22.823Z,69.6
2023-06-23T08:25:22.765Z,69.7
2023-06-23T08:26:22.942Z,69.7
2023-06-23T08:27:22.793Z,69.7
2023-06-23T08:28:22.775Z,69.7
2023-06-23T08:29:22.763Z,69.7
2023-06-23T08:30:22.812Z,69.7
2023-06-23T08:31:22.845Z,69.7
2023-06-23T08:32:22.793Z,69.7
2023-06-23T08:33:22.823Z,69.7
2023-06-23T08:34:22.786Z,69.7
2023-06-23T08:35:22.811Z,69.8
2023-06-23T08:36:22.762Z,69.8
2023-06-23T08:37:22.899Z,69.8
2023-06-23T08:38:22.800Z,69.7
2023-06-23T08:39:22.755Z,69.7
2023-06-23T08:40:22.848Z,69.7
2023-06-23T08:41:24.687Z,69.8
2023-06-23T08:42:22.739Z,69.8
2023-06-23T08:43:22.779Z,69.8
2023-06-23T08:44:22.776Z,69.8
2023-06-23T08:45:22.737Z,69.8
2023-06-23T08:46:22.796Z,69.9
2023-06-23T08:47:22.894Z,69.9
2023-06-23T08:48:22.815Z,69.9
2023-06-23T08:49:22.787Z,69.9
2023-06-23T08:50:22.737Z,69.9
2023-06-23T08:51:22.751Z,69.9
2023-06-23T08:52:22.736Z,69.9
2023-06-23T08:53:22.716Z,69.9
2023-06-23T08:54:22.744Z,69.9
2023-06-23T08:55:22.744Z,69.8
2023-06-23T08:56:22.707Z,69.8
2023-06-23T08:57:22.708Z,69.7
2023-06-23T08:58:22.775Z,69.7
2023-06-23T08:59:25.177Z,69.7
2023-06-23T09:00:22.844Z,69.7
2023-06-23T09:01:22.794Z,69.6
2023-06-23T09:02:24.579Z,69.6
2023-06-23T09:03:22.729Z,69.5
2023-06-23T09:04:22.721Z,69.4
2023-06-23T09:05:22.852Z,69.4
2023-06-23T09:06:22.778Z,69.4
2023-06-23T09:07:22.706Z,69.3
2023-06-23T09:08:22.730Z,69.3
2023-06-23T09:09:22.734Z,69.3
2023-06-23T09:10:25.449Z,69.3
2023-06-23T09:11:23.012Z,69.3
2023-06-23T09:12:22.699Z,69.3
2023-06-23T09:13:22.716Z,69.2
2023-06-23T09:14:22.702Z,69.3
2023-06-23T09:15:22.777Z,69.3
2023-06-23T09:16:22.706Z,69.3
2023-06-23T09:17:22.741Z,69.4
2023-06-23T09:18:22.682Z,69.3
2023-06-23T09:19:22.717Z,69.3
2023-06-23T09:20:22.727Z,69.4
2023-06-23T09:21:25.956Z,69.4
2023-06-23T09:22:22.710Z,69.4
2023-06-23T09:23:22.720Z,69.3
2023-06-23T09:24:24.646Z,69.3
2023-06-23T09:25:22.761Z,69.3
2023-06-23T09:26:23.734Z,69.2
2023-06-23T09:27:22.669Z,69.3
2023-06-23T09:28:22.707Z,69.3
2023-06-23T09:29:22.699Z,69.3
2023-06-23T09:30:22.712Z,69.2
2023-06-23T09:31:22.703Z,69.1
2023-06-23T09:32:25.572Z,69.1
2023-06-23T09:33:22.702Z,69.2
2023-06-23T09:34:22.782Z,69.1
2023-06-23T09:35:22.697Z,69.1
2023-06-23T09:36:22.692Z,69.1
2023-06-23T09:37:22.676Z,69.1
2023-06-23T09:38:22.712Z,69.2
2023-06-23T09:39:22.713Z,69.1
2023-06-23T09:40:22.774Z,69.1
2023-06-23T09:41:22.694Z,69.1
2023-06-23T09:42:22.654Z,69.1
2023-06-23T09:43:22.945Z,69.2
2023-06-23T09:44:22.669Z,69.2
2023-06-23T09:45:24.726Z,69.2
2023-06-23T09:46:22.698Z,69.2
2023-06-23T09:47:22.769Z,69.2
2023-06-23T09:48:22.693Z,69.2
2023-06-23T09:49:22.679Z,69.1
2023-06-23T09:50:22.659Z,69.1
2023-06-23T09:51:22.658Z,69.2
2023-06-23T09:52:22.720Z,69.2
2023-06-23T09:53:22.707Z,69.2
2023-06-23T09:54:22.774Z,69.1
2023-06-23T09:55:22.683Z,69.1
2023-06-23T09:56:22.716Z,69.1
2023-06-23T09:57:22.678Z,69.0
2023-06-23T09:58:22.705Z,68.9
2023-06-23T09:59:22.757Z,68.9
2023-06-23T10:00:22.700Z,68.9
2023-06-23T10:01:22.702Z,68.8
2023-06-23T10:02:22.878Z,68.9
2023-06-23T10:03:22.730Z,68.9
2023-06-23T10:04:22.704Z,68.8
2023-06-23T10:05:22.880Z,68.8
2023-06-23T10:06:24.741Z,68.8
2023-06-23T10:07:22.682Z,68.8
2023-06-23T10:08:22.614Z,68.7
2023-06-23T10:09:22.685Z,68.6
2023-06-23T10:10:22.935Z,68.7
2023-06-23T10:11:22.676Z,68.6
2023-06-23T10:12:22.651Z,68.5
2023-06-23T10:13:22.716Z,68.5
2023-06-23T10:14:22.671Z,68.5
2023-06-23T10:15:22.649Z,68.4
2023-06-23T10:16:22.699Z,68.5
2023-06-23T10:17:22.666Z,68.5
2023-06-23T10:18:22.706Z,68.5
2023-06-23T10:19:22.611Z,68.4
2023-06-23T10:20:22.726Z,68.3
2023-06-23T10:21:22.645Z,68.3
2023-06-23T10:22:22.650Z,68.2
2023-06-23T10:23:22.704Z,68.3
2023-06-23T10:24:22.619Z,68.3
2023-06-23T10:25:22.640Z,68.2
2023-06-23T10:26:22.784Z,67.9
2023-06-23T10:27:23.201Z,68.1
2023-06-23T10:28:25.892Z,68.1
2023-06-23T10:29:22.658Z,68.1
2023-06-23T10:30:22.686Z,68.2
2023-06-23T10:31:22.675Z,68.2
2023-06-23T10:32:22.651Z,68.1
2023-06-23T10:33:22.624Z,68.1
2023-06-23T10:34:22.619Z,68.0
2023-06-23T10:35:22.684Z,67.9
2023-06-23T10:36:22.642Z,67.9
2023-06-23T10:37:31.481Z,67.9
2023-06-23T10:38:24.498Z,67.8
2023-06-23T10:39:22.625Z,67.9
2023-06-23T10:40:22.604Z,67.9
2023-06-23T10:41:22.635Z,67.7
2023-06-23T10:42:22.659Z,67.6
2023-06-23T10:43:22.607Z,67.5
2023-06-23T10:44:22.653Z,67.5
2023-06-23T10:45:22.645Z,67.4
2023-06-23T10:46:22.648Z,67.4
2023-06-23T10:47:22.627Z,67.3
2023-06-23T10:48:22.693Z,67.2
2023-06-23T10:49:25.864Z,67.1
2023-06-23T10:50:22.634Z,67.1
2023-06-23T10:51:22.649Z,67.0
2023-06-23T10:52:22.618Z,66.9
2023-06-23T10:53:22.620Z,66.8
2023-06-23T10:54:22.591Z,66.7
2023-06-23T10:55:22.611Z,66.8
2023-06-23T10:56:22.742Z,66.7
2023-06-23T10:57:22.587Z,66.6
2023-06-23T10:58:22.665Z,66.6
2023-06-23T10:59:22.638Z,66.5
2023-06-23T11:00:22.734Z,66.4
2023-06-23T11:01:22.631Z,66.3
2023-06-23T11:02:22.721Z,66.0
2023-06-23T11:03:22.627Z,66.1
2023-06-23T11:04:22.628Z,65.8
2023-06-23T11:05:22.613Z,65.7
2023-06-23T11:06:22.602Z,65.8
2023-06-23T11:07:22.721Z,65.8
2023-06-23T11:08:22.598Z,65.5
2023-06-23T11:09:22.732Z,65.4
2023-06-23T11:10:25.712Z,65.3
2023-06-23T11:11:22.746Z,65.2
2023-06-23T11:12:22.672Z,65.2
2023-06-23T11:13:22.573Z,65.1
2023-06-23T11:14:22.563Z,65.0
2023-06-23T11:15:22.595Z,64.9
2023-06-23T11:16:22.602Z,64.8
2023-06-23T11:17:22.741Z,64.8
2023-06-23T11:18:22.595Z,64.8
2023-06-23T11:19:22.578Z,64.7
2023-06-23T11:20:22.564Z,64.5
2023-06-23T11:21:22.634Z,64.4
2023-06-23T11:22:22.572Z,64.1
2023-06-23T11:23:22.664Z,63.9
2023-06-23T11:24:22.669Z,63.6
2023-06-23T11:25:22.640Z,63.8
2023-06-23T11:26:22.583Z,63.7
2023-06-23T11:27:22.552Z,63.6
2023-06-23T11:28:22.638Z,63.6
2023-06-23T11:29:22.670Z,63.5
2023-06-23T11:30:23.251Z,63.3
2023-06-23T11:31:22.538Z,63.2
2023-06-23T11:32:22.654Z,63.1
2023-06-23T11:33:22.576Z,63.0
2023-06-23T11:34:22.646Z,63.0
2023-06-23T11:35:22.582Z,63.1
2023-06-23T11:36:22.637Z,63.0
2023-06-23T11:37:22.605Z,62.9
2023-06-23T11:38:22.630Z,62.8
2023-06-23T11:39:22.544Z,62.8
2023-06-23T11:40:22.589Z,62.7
2023-06-23T11:41:22.542Z,62.5
2023-06-23T11:42:22.595Z,62.5
2023-06-23T11:43:25.846Z,62.4
2023-06-23T11:44:22.846Z,62.3
2023-06-23T11:45:22.561Z,62.2
2023-06-23T11:46:22.547Z,62.3
2023-06-23T11:47:22.607Z,62.3
2023-06-23T11:48:22.618Z,62.3
2023-06-23T11:49:22.639Z,62.1
2023-06-23T11:50:22.532Z,62.0
2023-06-23T11:51:23.068Z,61.9
2023-06-23T11:52:22.502Z,61.9
2023-06-23T11:53:22.552Z,61.9
2023-06-23T11:54:22.613Z,61.9
2023-06-23T11:55:22.782Z,61.8
2023-06-23T11:56:22.540Z,61.8
2023-06-23T11:57:22.555Z,61.9
2023-06-23T11:58:22.544Z,61.9
2023-06-23T11:59:22.593Z,61.8
2023-06-23T12:00:22.602Z,61.7
2023-06-23T12:01:22.524Z,61.8
2023-06-23T12:02:22.640Z,61.7
2023-06-23T12:03:22.561Z,61.5
2023-06-23T12:04:22.681Z,61.3
2023-06-23T12:05:22.637Z,61.4
2023-06-23T12:06:22.932Z,61.2
2023-06-23T12:07:22.542Z,61.1
2023-06-23T12:08:22.601Z,60.8
2023-06-23T12:09:22.589Z,60.5
2023-06-23T12:10:22.536Z,60.6
2023-06-23T12:11:22.638Z,60.7
2023-06-23T12:12:22.528Z,60.8
2023-06-23T12:13:22.598Z,60.7
2023-06-23T12:14:24.699Z,60.6
2023-06-23T12:15:22.536Z,60.5
2023-06-23T12:16:22.606Z,60.5
2023-06-23T12:17:22.787Z,60.3
2023-06-23T12:18:22.594Z,60.2
2023-06-23T12:19:22.519Z,60.3
2023-06-23T12:20:22.532Z,60.3
2023-06-23T12:21:22.535Z,60.3
2023-06-23T12:22:22.566Z,60.2
2023-06-23T12:23:22.607Z,60.2
2023-06-23T12:24:22.502Z,60.0
2023-06-23T12:25:22.481Z,59.9
2023-06-23T12:26:22.496Z,59.7
2023-06-23T12:27:22.554Z,59.8
2023-06-23T12:28:22.936Z,59.7
2023-06-23T12:29:22.802Z,59.6
2023-06-23T12:30:22.598Z,59.5
2023-06-23T12:31:22.573Z,59.5
2023-06-23T12:32:22.569Z,59.5
2023-06-23T12:33:22.563Z,59.5
2023-06-23T12:34:22.602Z,59.2
2023-06-23T12:35:25.041Z,59.2
2023-06-23T12:36:22.567Z,59.3
2023-06-23T12:37:22.520Z,59.2
2023-06-23T12:38:22.507Z,59.3
2023-06-23T12:39:22.714Z,59.3
2023-06-23T12:40:22.512Z,59.3
2023-06-23T12:41:22.547Z,59.2
2023-06-23T12:42:22.525Z,59.1
2023-06-23T12:43:22.504Z,59.1
2023-06-23T12:44:22.534Z,59.0
2023-06-23T12:45:22.544Z,58.9
2023-06-23T12:46:22.560Z,58.8
2023-06-23T12:47:22.504Z,58.8
2023-06-23T12:48:22.516Z,58.8
2023-06-23T12:49:22.605Z,58.8
2023-06-23T12:50:37.037Z,58.6
2023-06-23T12:51:22.603Z,58.5
2023-06-23T12:52:22.498Z,58.5
2023-06-23T12:53:22.646Z,58.5
2023-06-23T12:54:22.466Z,58.5
2023-06-23T12:55:22.658Z,58.4
2023-06-23T12:56:24.820Z,58.4
2023-06-23T12:57:22.495Z,58.3
2023-06-23T12:58:22.497Z,58.0
2023-06-23T12:59:22.499Z,58.0
2023-06-23T13:00:22.531Z,58.0
2023-06-23T13:01:22.602Z,58.1
2023-06-23T13:02:22.483Z,58.0
2023-06-23T13:03:22.522Z,58.1
2023-06-23T13:04:22.727Z,58.1
2023-06-23T13:05:22.513Z,58.1
2023-06-23T13:06:22.597Z,58.2
2023-06-23T13:07:22.458Z,58.2
2023-06-23T13:08:22.652Z,58.1
2023-06-23T13:09:22.460Z,58.1
2023-06-23T13:10:22.441Z,58.2
2023-06-23T13:11:22.653Z,58.1
2023-06-23T13:12:22.804Z,58.1
2023-06-23T13:13:22.529Z,58.2
2023-06-23T13:14:22.528Z,58.2
2023-06-23T13:15:22.477Z,58.2
2023-06-23T13:16:22.473Z,58.2
2023-06-23T13:17:24.681Z,58.2
2023-06-23T13:18:23.924Z,58.1
2023-06-23T13:19:22.478Z,58.2
2023-06-23T13:20:24.895Z,58.2
2023-06-23T13:21:22.487Z,58.3
2023-06-23T13:22:23.281Z,58.3
2023-06-23T13:23:22.704Z,58.2